createdAt,value
2022-10-17T00:11:14.285Z,1020.57
2022-10-17T00:39:50.726Z,1020.83
2022-10-17T01:08:30.571Z,1021.05
2022-10-17T01:37:17.343Z,1020.99
2022-10-17T02:05:50.711Z,1020.87
2022-10-17T02:34:34.831Z,1021
2022-10-17T03:03:18.100Z,1020.91
2022-10-17T03:31:59.632Z,1021.28
2022-10-17T04:00:18.921Z,1021.35
2022-10-17T04:28:45.710Z,1021.54
2022-10-17T04:57:23.241Z,1021.61
2022-10-17T05:25:57.305Z,1021.72
2022-10-17T05:54:37.898Z,1021.93
2022-10-17T06:23:10.845Z,1022.3
2022-10-17T06:51:46.996Z,1022.62
2022-10-17T07:20:20.923Z,1022.98
2022-10-17T07:48:42.119Z,1023.09
2022-10-17T08:17:05.756Z,1023.4
2022-10-17T08:45:38.214Z,1023.54
2022-10-17T09:14:21.457Z,1023.55
2022-10-17T09:43:00.285Z,1023.79
2022-10-17T10:11:32.888Z,1023.93
2022-10-17T10:39:57.804Z,1023.89
2022-10-17T11:08:34.502Z,1023.71
2022-10-17T11:37:07.310Z,1023.9
2022-10-17T12:05:52.739Z,1023.85
2022-10-17T12:34:21.215Z,1023.79
2022-10-17T13:03:04.290Z,1023.75
2022-10-17T13:31:46.320Z,1023.5
2022-10-17T14:00:19.560Z,1023.4
2022-10-17T14:28:50.342Z,1023.36
2022-10-17T14:57:17.482Z,1023.54
2022-10-17T15:25:55.417Z,1023.53
2022-10-17T15:54:30.907Z,1023.64
2022-10-17T16:22:56.332Z,1024.01
2022-10-17T16:51:18.241Z,1024.14
2022-10-17T17:19:56.211Z,1024.41
2022-10-17T17:48:12.382Z,1024.81
2022-10-17T18:16:46.765Z,1024.96
2022-10-17T18:45:16.035Z,1025.04
2022-10-17T19:13:52.336Z,1025
2022-10-17T19:42:20.043Z,1024.89
2022-10-17T20:10:56.773Z,1024.86
2022-10-17T20:39:36.429Z,1025.01
2022-10-17T21:08:06.574Z,1025.38
2022-10-17T21:36:34.892Z,1025.42
2022-10-17T22:05:13.360Z,1025.32
2022-10-17T22:33:47.328Z,1024.98
2022-10-17T23:02:34.684Z,1025.02
2022-10-17T23:31:11.647Z,1024.97
2022-10-17T23:59:51.772Z,1025
